sensor_id;sensor_type;location;lat;lon;timestamp;P1;durP1;ratioP1;P2;durP2;ratioP2
44512;SDS011;30219;50.588;9.504;2022-11-20T00:02:25;32.78;;;16.17;;
44512;SDS011;30219;50.588;9.504;2022-11-20T00:04:51;32.65;;;16.35;;
44512;SDS011;30219;50.588;9.504;2022-11-20T00:07:16;32.88;;;16.20;;
44512;SDS011;30219;50.588;9.504;2022-11-20T00:09:42;31.95;;;15.25;;
44512;SDS011;30219;50.588;9.504;2022-11-20T00:12:07;31.20;;;15.98;;
44512;SDS011;30219;50.588;9.504;2022-11-20T00:14:33;31.42;;;15.00;;
44512;SDS011;30219;50.588;9.504;2022-11-20T00:16:59;44.00;;;17.30;;
44512;SDS011;30219;50.588;9.504;2022-11-20T00:19:24;28.52;;;14.95;;
44512;SDS011;30219;50.588;9.504;2022-11-20T00:21:50;33.20;;;15.70;;
44512;SDS011;30219;50.588;9.504;2022-11-20T00:24:16;34.53;;;15.23;;
44512;SDS011;30219;50.588;9.504;2022-11-20T00:26:42;30.45;;;16.17;;
44512;SDS011;30219;50.588;9.504;2022-11-20T00:29:08;32.00;;;16.30;;
44512;SDS011;30219;50.588;9.504;2022-11-20T00:31:34;30.95;;;15.25;;
44512;SDS011;30219;50.588;9.504;2022-11-20T00:34:00;35.13;;;16.25;;
44512;SDS011;30219;50.588;9.504;2022-11-20T00:36:26;36.63;;;17.13;;
44512;SDS011;30219;50.588;9.504;2022-11-20T00:38:55;33.75;;;16.65;;
44512;SDS011;30219;50.588;9.504;2022-11-20T00:41:21;34.35;;;16.10;;
44512;SDS011;30219;50.588;9.504;2022-11-20T00:43:48;37.00;;;17.85;;
44512;SDS011;30219;50.588;9.504;2022-11-20T00:46:16;34.47;;;16.52;;
44512;SDS011;30219;50.588;9.504;2022-11-20T00:48:43;32.35;;;16.33;;
44512;SDS011;30219;50.588;9.504;2022-11-20T00:51:14;32.40;;;15.57;;
44512;SDS011;30219;50.588;9.504;2022-11-20T00:53:41;31.15;;;15.63;;
44512;SDS011;30219;50.588;9.504;2022-11-20T00:56:07;29.27;;;14.50;;
44512;SDS011;30219;50.588;9.504;2022-11-20T00:58:36;34.35;;;16.05;;
44512;SDS011;30219;50.588;9.504;2022-11-20T01:01:24;31.20;;;14.50;;
44512;SDS011;30219;50.588;9.504;2022-11-20T01:03:50;34.40;;;15.43;;
44512;SDS011;30219;50.588;9.504;2022-11-20T01:06:19;37.80;;;18.20;;
44512;SDS011;30219;50.588;9.504;2022-11-20T01:08:49;33.08;;;16.13;;
44512;SDS011;30219;50.588;9.504;2022-11-20T01:11:19;35.90;;;17.75;;
44512;SDS011;30219;50.588;9.504;2022-11-20T01:13:46;39.03;;;17.45;;
44512;SDS011;30219;50.588;9.504;2022-11-20T01:16:18;44.33;;;19.15;;
44512;SDS011;30219;50.588;9.504;2022-11-20T01:18:46;38.58;;;18.30;;
44512;SDS011;30219;50.588;9.504;2022-11-20T01:21:14;45.22;;;18.73;;
44512;SDS011;30219;50.588;9.504;2022-11-20T01:23:41;48.58;;;20.02;;
44512;SDS011;30219;50.588;9.504;2022-11-20T01:26:12;49.45;;;19.27;;
44512;SDS011;30219;50.588;9.504;2022-11-20T01:28:40;50.28;;;19.20;;
44512;SDS011;30219;50.588;9.504;2022-11-20T01:31:13;46.30;;;19.73;;
44512;SDS011;30219;50.588;9.504;2022-11-20T01:33:41;45.90;;;18.90;;
44512;SDS011;30219;50.588;9.504;2022-11-20T01:36:07;46.70;;;19.17;;
44512;SDS011;30219;50.588;9.504;2022-11-20T01:38:34;41.58;;;19.38;;
44512;SDS011;30219;50.588;9.504;2022-11-20T01:41:00;45.13;;;18.92;;
44512;SDS011;30219;50.588;9.504;2022-11-20T01:43:26;47.00;;;19.95;;
44512;SDS011;30219;50.588;9.504;2022-11-20T01:46:12;49.58;;;20.45;;
44512;SDS011;30219;50.588;9.504;2022-11-20T01:48:52;49.03;;;19.73;;
44512;SDS011;30219;50.588;9.504;2022-11-20T01:53:52;44.22;;;19.40;;
44512;SDS011;30219;50.588;9.504;2022-11-20T01:56:20;45.75;;;19.83;;
44512;SDS011;30219;50.588;9.504;2022-11-20T01:58:48;54.13;;;19.77;;
44512;SDS011;30219;50.588;9.504;2022-11-20T02:01:18;46.28;;;18.98;;
44512;SDS011;30219;50.588;9.504;2022-11-20T02:03:45;47.60;;;19.35;;
44512;SDS011;30219;50.588;9.504;2022-11-20T02:09:20;44.88;;;18.83;;
44512;SDS011;30219;50.588;9.504;2022-11-20T02:11:46;47.22;;;19.23;;
44512;SDS011;30219;50.588;9.504;2022-11-20T02:14:11;48.88;;;20.08;;
44512;SDS011;30219;50.588;9.504;2022-11-20T02:16:39;44.72;;;20.10;;
44512;SDS011;30219;50.588;9.504;2022-11-20T02:19:13;55.75;;;21.55;;
44512;SDS011;30219;50.588;9.504;2022-11-20T02:24:14;40.90;;;16.67;;
44512;SDS011;30219;50.588;9.504;2022-11-20T02:26:49;50.70;;;21.40;;
44512;SDS011;30219;50.588;9.504;2022-11-20T02:29:16;55.92;;;21.90;;
44512;SDS011;30219;50.588;9.504;2022-11-20T02:31:48;59.78;;;23.95;;
44512;SDS011;30219;50.588;9.504;2022-11-20T02:34:13;56.38;;;22.65;;
44512;SDS011;30219;50.588;9.504;2022-11-20T02:36:39;55.05;;;21.27;;
44512;SDS011;30219;50.588;9.504;2022-11-20T02:39:06;47.88;;;20.77;;
44512;SDS011;30219;50.588;9.504;2022-11-20T02:41:33;48.08;;;19.63;;
44512;SDS011;30219;50.588;9.504;2022-11-20T02:44:01;49.53;;;21.77;;
44512;SDS011;30219;50.588;9.504;2022-11-20T02:46:27;51.13;;;21.23;;
44512;SDS011;30219;50.588;9.504;2022-11-20T02:48:53;45.47;;;20.33;;
44512;SDS011;30219;50.588;9.504;2022-11-20T02:51:19;43.65;;;20.27;;
44512;SDS011;30219;50.588;9.504;2022-11-20T02:53:44;48.15;;;20.88;;
44512;SDS011;30219;50.588;9.504;2022-11-20T02:56:10;49.90;;;20.77;;
44512;SDS011;30219;50.588;9.504;2022-11-20T02:58:36;48.53;;;21.27;;
44512;SDS011;30219;50.588;9.504;2022-11-20T03:01:01;50.92;;;21.10;;
44512;SDS011;30219;50.588;9.504;2022-11-20T03:03:27;50.15;;;20.30;;
44512;SDS011;30219;50.588;9.504;2022-11-20T03:05:52;51.20;;;21.00;;
44512;SDS011;30219;50.588;9.504;2022-11-20T03:08:18;48.80;;;19.67;;
44512;SDS011;30219;50.588;9.504;2022-11-20T03:10:43;48.00;;;20.23;;
44512;SDS011;30219;50.588;9.504;2022-11-20T03:13:09;48.50;;;19.65;;
44512;SDS011;30219;50.588;9.504;2022-11-20T03:15:35;46.25;;;20.40;;
44512;SDS011;30219;50.588;9.504;2022-11-20T03:18:01;50.95;;;20.95;;
44512;SDS011;30219;50.588;9.504;2022-11-20T03:20:27;48.72;;;19.40;;
44512;SDS011;30219;50.588;9.504;2022-11-20T03:22:53;49.92;;;20.42;;
44512;SDS011;30219;50.588;9.504;2022-11-20T03:25:19;48.13;;;20.67;;
44512;SDS011;30219;50.588;9.504;2022-11-20T03:27:45;43.55;;;19.33;;
44512;SDS011;30219;50.588;9.504;2022-11-20T03:30:11;42.75;;;20.20;;
44512;SDS011;30219;50.588;9.504;2022-11-20T03:32:36;46.25;;;20.08;;
44512;SDS011;30219;50.588;9.504;2022-11-20T03:35:02;49.42;;;21.58;;
44512;SDS011;30219;50.588;9.504;2022-11-20T03:37:28;45.25;;;20.55;;
44512;SDS011;30219;50.588;9.504;2022-11-20T03:39:53;52.85;;;21.20;;
44512;SDS011;30219;50.588;9.504;2022-11-20T03:42:19;50.45;;;20.88;;
44512;SDS011;30219;50.588;9.504;2022-11-20T03:45:03;39.08;;;17.67;;
44512;SDS011;30219;50.588;9.504;2022-11-20T03:47:29;42.92;;;19.58;;
44512;SDS011;30219;50.588;9.504;2022-11-20T03:49:55;46.60;;;20.02;;
44512;SDS011;30219;50.588;9.504;2022-11-20T03:52:20;53.10;;;22.65;;
44512;SDS011;30219;50.588;9.504;2022-11-20T03:54:46;53.90;;;23.60;;
44512;SDS011;30219;50.588;9.504;2022-11-20T03:57:11;56.15;;;23.85;;
44512;SDS011;30219;50.588;9.504;2022-11-20T03:59:37;60.00;;;22.75;;
44512;SDS011;30219;50.588;9.504;2022-11-20T04:02:02;46.65;;;21.55;;
44512;SDS011;30219;50.588;9.504;2022-11-20T04:04:28;49.85;;;21.15;;
44512;SDS011;30219;50.588;9.504;2022-11-20T04:06:53;50.25;;;21.63;;
44512;SDS011;30219;50.588;9.504;2022-11-20T04:09:19;42.75;;;19.50;;
44512;SDS011;30219;50.588;9.504;2022-11-20T04:11:44;54.28;;;22.58;;
44512;SDS011;30219;50.588;9.504;2022-11-20T04:14:13;57.25;;;23.08;;
44512;SDS011;30219;50.588;9.504;2022-11-20T04:16:40;55.00;;;23.08;;
44512;SDS011;30219;50.588;9.504;2022-11-20T04:19:08;51.00;;;22.23;;
44512;SDS011;30219;50.588;9.504;2022-11-20T04:21:36;47.28;;;20.65;;
44512;SDS011;30219;50.588;9.504;2022-11-20T04:24:02;45.33;;;21.83;;
44512;SDS011;30219;50.588;9.504;2022-11-20T04:26:28;48.33;;;22.20;;
44512;SDS011;30219;50.588;9.504;2022-11-20T04:28:55;50.50;;;22.92;;
44512;SDS011;30219;50.588;9.504;2022-11-20T04:31:23;44.47;;;20.92;;
44512;SDS011;30219;50.588;9.504;2022-11-20T04:33:50;50.20;;;22.17;;
44512;SDS011;30219;50.588;9.504;2022-11-20T04:36:17;40.97;;;19.67;;
44512;SDS011;30219;50.588;9.504;2022-11-20T04:38:56;49.63;;;20.65;;
44512;SDS011;30219;50.588;9.504;2022-11-20T04:41:24;43.83;;;20.15;;
44512;SDS011;30219;50.588;9.504;2022-11-20T04:43:52;45.30;;;20.90;;
44512;SDS011;30219;50.588;9.504;2022-11-20T04:46:24;50.28;;;22.42;;
44512;SDS011;30219;50.588;9.504;2022-11-20T04:48:50;49.33;;;20.13;;
44512;SDS011;30219;50.588;9.504;2022-11-20T04:51:16;47.80;;;20.45;;
44512;SDS011;30219;50.588;9.504;2022-11-20T04:53:42;47.58;;;21.27;;
44512;SDS011;30219;50.588;9.504;2022-11-20T04:56:08;48.05;;;21.55;;
44512;SDS011;30219;50.588;9.504;2022-11-20T04:58:35;46.88;;;21.40;;
44512;SDS011;30219;50.588;9.504;2022-11-20T05:01:23;50.50;;;21.10;;
44512;SDS011;30219;50.588;9.504;2022-11-20T05:03:48;47.10;;;21.35;;
44512;SDS011;30219;50.588;9.504;2022-11-20T05:06:15;47.65;;;21.33;;
44512;SDS011;30219;50.588;9.504;2022-11-20T05:08:42;50.97;;;22.80;;
44512;SDS011;30219;50.588;9.504;2022-11-20T05:11:11;42.53;;;19.92;;
44512;SDS011;30219;50.588;9.504;2022-11-20T05:13:39;50.63;;;23.25;;
44512;SDS011;30219;50.588;9.504;2022-11-20T05:16:06;50.22;;;21.77;;
44512;SDS011;30219;50.588;9.504;2022-11-20T05:18:36;52.30;;;22.58;;
44512;SDS011;30219;50.588;9.504;2022-11-20T05:21:03;44.50;;;21.02;;
44512;SDS011;30219;50.588;9.504;2022-11-20T05:23:30;54.30;;;21.92;;
44512;SDS011;30219;50.588;9.504;2022-11-20T05:25:56;49.97;;;22.00;;
44512;SDS011;30219;50.588;9.504;2022-11-20T05:28:22;46.08;;;21.90;;
44512;SDS011;30219;50.588;9.504;2022-11-20T05:30:48;49.17;;;21.00;;
44512;SDS011;30219;50.588;9.504;2022-11-20T05:33:14;49.97;;;22.55;;
44512;SDS011;30219;50.588;9.504;2022-11-20T05:35:40;50.00;;;21.95;;
44512;SDS011;30219;50.588;9.504;2022-11-20T05:38:06;48.05;;;22.27;;
44512;SDS011;30219;50.588;9.504;2022-11-20T05:40:32;51.63;;;22.13;;
44512;SDS011;30219;50.588;9.504;2022-11-20T05:42:57;43.50;;;22.00;;
44512;SDS011;30219;50.588;9.504;2022-11-20T05:45:24;47.00;;;20.70;;
44512;SDS011;30219;50.588;9.504;2022-11-20T05:47:49;42.58;;;19.70;;
44512;SDS011;30219;50.588;9.504;2022-11-20T05:50:15;47.63;;;22.95;;
44512;SDS011;30219;50.588;9.504;2022-11-20T05:52:41;42.17;;;21.75;;
44512;SDS011;30219;50.588;9.504;2022-11-20T05:55:06;42.80;;;21.40;;
44512;SDS011;30219;50.588;9.504;2022-11-20T05:57:32;48.72;;;22.45;;
44512;SDS011;30219;50.588;9.504;2022-11-20T05:59:58;46.13;;;20.00;;
44512;SDS011;30219;50.588;9.504;2022-11-20T06:02:24;47.13;;;21.70;;
44512;SDS011;30219;50.588;9.504;2022-11-20T06:04:49;48.22;;;21.73;;
44512;SDS011;30219;50.588;9.504;2022-11-20T06:07:15;48.75;;;21.75;;
44512;SDS011;30219;50.588;9.504;2022-11-20T06:09:40;46.78;;;21.58;;
44512;SDS011;30219;50.588;9.504;2022-11-20T06:12:06;47.30;;;22.08;;
44512;SDS011;30219;50.588;9.504;2022-11-20T06:14:32;46.05;;;20.88;;
44512;SDS011;30219;50.588;9.504;2022-11-20T06:16:58;44.35;;;21.00;;
44512;SDS011;30219;50.588;9.504;2022-11-20T06:19:24;43.92;;;20.40;;
44512;SDS011;30219;50.588;9.504;2022-11-20T06:21:49;45.47;;;20.95;;
44512;SDS011;30219;50.588;9.504;2022-11-20T06:24:15;44.17;;;21.13;;
44512;SDS011;30219;50.588;9.504;2022-11-20T06:26:41;46.72;;;20.55;;
44512;SDS011;30219;50.588;9.504;2022-11-20T06:29:07;48.08;;;21.85;;
44512;SDS011;30219;50.588;9.504;2022-11-20T06:31:33;46.38;;;20.38;;
44512;SDS011;30219;50.588;9.504;2022-11-20T06:34:02;47.08;;;20.65;;
44512;SDS011;30219;50.588;9.504;2022-11-20T06:36:31;45.40;;;21.23;;
44512;SDS011;30219;50.588;9.504;2022-11-20T06:38:57;43.88;;;21.55;;
44512;SDS011;30219;50.588;9.504;2022-11-20T06:41:23;48.90;;;21.33;;
44512;SDS011;30219;50.588;9.504;2022-11-20T06:43:50;42.13;;;20.77;;
44512;SDS011;30219;50.588;9.504;2022-11-20T06:46:16;47.42;;;21.92;;
44512;SDS011;30219;50.588;9.504;2022-11-20T06:48:43;47.38;;;21.60;;
44512;SDS011;30219;50.588;9.504;2022-11-20T06:51:09;44.78;;;20.13;;
44512;SDS011;30219;50.588;9.504;2022-11-20T06:53:35;41.45;;;19.65;;
44512;SDS011;30219;50.588;9.504;2022-11-20T06:56:01;48.67;;;21.38;;
44512;SDS011;30219;50.588;9.504;2022-11-20T06:58:28;45.67;;;21.70;;
44512;SDS011;30219;50.588;9.504;2022-11-20T07:00:57;42.15;;;20.70;;
44512;SDS011;30219;50.588;9.504;2022-11-20T07:03:28;49.83;;;20.92;;
44512;SDS011;30219;50.588;9.504;2022-11-20T07:05:57;48.65;;;21.48;;
44512;SDS011;30219;50.588;9.504;2022-11-20T07:08:24;43.38;;;20.40;;
44512;SDS011;30219;50.588;9.504;2022-11-20T07:10:50;43.65;;;21.15;;
44512;SDS011;30219;50.588;9.504;2022-11-20T07:13:16;48.33;;;21.98;;
44512;SDS011;30219;50.588;9.504;2022-11-20T07:15:41;41.67;;;20.55;;
44512;SDS011;30219;50.588;9.504;2022-11-20T07:18:07;45.65;;;21.08;;
44512;SDS011;30219;50.588;9.504;2022-11-20T07:20:32;43.65;;;20.10;;
44512;SDS011;30219;50.588;9.504;2022-11-20T07:22:58;45.00;;;21.67;;
44512;SDS011;30219;50.588;9.504;2022-11-20T07:25:24;43.70;;;21.02;;
44512;SDS011;30219;50.588;9.504;2022-11-20T07:27:50;47.90;;;21.38;;
44512;SDS011;30219;50.588;9.504;2022-11-20T07:30:16;48.70;;;20.10;;
44512;SDS011;30219;50.588;9.504;2022-11-20T07:32:42;45.45;;;21.38;;
44512;SDS011;30219;50.588;9.504;2022-11-20T07:35:07;44.58;;;20.65;;
44512;SDS011;30219;50.588;9.504;2022-11-20T07:37:36;46.83;;;21.33;;
44512;SDS011;30219;50.588;9.504;2022-11-20T07:40:02;40.80;;;20.77;;
44512;SDS011;30219;50.588;9.504;2022-11-20T07:42:28;44.15;;;22.27;;
44512;SDS011;30219;50.588;9.504;2022-11-20T07:44:54;47.75;;;22.88;;
44512;SDS011;30219;50.588;9.504;2022-11-20T07:47:19;49.78;;;23.30;;
44512;SDS011;30219;50.588;9.504;2022-11-20T07:49:45;47.60;;;22.48;;
44512;SDS011;30219;50.588;9.504;2022-11-20T07:52:10;48.67;;;22.27;;
44512;SDS011;30219;50.588;9.504;2022-11-20T07:54:36;48.45;;;24.17;;
44512;SDS011;30219;50.588;9.504;2022-11-20T07:57:02;51.38;;;22.00;;
44512;SDS011;30219;50.588;9.504;2022-11-20T07:59:27;48.00;;;23.13;;
44512;SDS011;30219;50.588;9.504;2022-11-20T08:01:53;56.92;;;23.85;;
44512;SDS011;30219;50.588;9.504;2022-11-20T08:04:18;50.58;;;21.33;;
44512;SDS011;30219;50.588;9.504;2022-11-20T08:06:44;48.55;;;22.25;;
44512;SDS011;30219;50.588;9.504;2022-11-20T08:09:09;47.30;;;21.48;;
44512;SDS011;30219;50.588;9.504;2022-11-20T08:11:35;46.17;;;21.60;;
44512;SDS011;30219;50.588;9.504;2022-11-20T08:14:19;46.30;;;22.02;;
44512;SDS011;30219;50.588;9.504;2022-11-20T08:16:45;50.63;;;22.80;;
44512;SDS011;30219;50.588;9.504;2022-11-20T08:19:13;57.50;;;25.10;;
44512;SDS011;30219;50.588;9.504;2022-11-20T08:21:40;52.47;;;25.38;;
44512;SDS011;30219;50.588;9.504;2022-11-20T08:24:06;52.15;;;24.52;;
44512;SDS011;30219;50.588;9.504;2022-11-20T08:26:32;57.58;;;25.58;;
44512;SDS011;30219;50.588;9.504;2022-11-20T08:28:58;57.60;;;26.77;;
44512;SDS011;30219;50.588;9.504;2022-11-20T08:31:24;50.60;;;25.42;;
44512;SDS011;30219;50.588;9.504;2022-11-20T08:33:51;54.38;;;24.27;;
44512;SDS011;30219;50.588;9.504;2022-11-20T08:36:17;55.45;;;24.77;;
44512;SDS011;30219;50.588;9.504;2022-11-20T08:38:47;53.60;;;25.42;;
44512;SDS011;30219;50.588;9.504;2022-11-20T08:41:13;53.45;;;24.38;;
44512;SDS011;30219;50.588;9.504;2022-11-20T08:43:49;57.53;;;25.98;;
44512;SDS011;30219;50.588;9.504;2022-11-20T08:46:16;52.17;;;25.38;;
44512;SDS011;30219;50.588;9.504;2022-11-20T08:48:42;53.50;;;24.52;;
44512;SDS011;30219;50.588;9.504;2022-11-20T08:51:08;52.45;;;23.67;;
44512;SDS011;30219;50.588;9.504;2022-11-20T08:53:33;45.88;;;22.13;;
44512;SDS011;30219;50.588;9.504;2022-11-20T08:55:59;46.40;;;22.40;;
44512;SDS011;30219;50.588;9.504;2022-11-20T08:58:25;48.20;;;22.98;;
44512;SDS011;30219;50.588;9.504;2022-11-20T09:00:51;45.75;;;22.10;;
44512;SDS011;30219;50.588;9.504;2022-11-20T09:03:17;49.42;;;22.83;;
44512;SDS011;30219;50.588;9.504;2022-11-20T09:05:43;51.08;;;23.02;;
44512;SDS011;30219;50.588;9.504;2022-11-20T09:08:08;48.90;;;22.42;;
44512;SDS011;30219;50.588;9.504;2022-11-20T09:10:34;48.85;;;22.90;;
44512;SDS011;30219;50.588;9.504;2022-11-20T09:13:00;49.58;;;23.17;;
44512;SDS011;30219;50.588;9.504;2022-11-20T09:15:26;55.35;;;23.88;;
44512;SDS011;30219;50.588;9.504;2022-11-20T09:17:56;46.88;;;22.08;;
44512;SDS011;30219;50.588;9.504;2022-11-20T09:20:23;50.38;;;23.65;;
44512;SDS011;30219;50.588;9.504;2022-11-20T09:22:49;52.78;;;23.15;;
44512;SDS011;30219;50.588;9.504;2022-11-20T09:25:15;50.50;;;22.20;;
44512;SDS011;30219;50.588;9.504;2022-11-20T09:27:41;56.85;;;25.10;;
44512;SDS011;30219;50.588;9.504;2022-11-20T09:30:08;56.17;;;26.00;;
44512;SDS011;30219;50.588;9.504;2022-11-20T09:32:34;63.75;;;25.52;;
44512;SDS011;30219;50.588;9.504;2022-11-20T09:35:00;53.80;;;25.02;;
44512;SDS011;30219;50.588;9.504;2022-11-20T09:37:26;58.47;;;26.17;;
44512;SDS011;30219;50.588;9.504;2022-11-20T09:39:52;65.53;;;29.05;;
44512;SDS011;30219;50.588;9.504;2022-11-20T09:58:59;58.03;;;25.38;;
44512;SDS011;30219;50.588;9.504;2022-11-20T10:01:30;50.33;;;25.25;;
44512;SDS011;30219;50.588;9.504;2022-11-20T10:04:12;54.60;;;24.73;;
44512;SDS011;30219;50.588;9.504;2022-11-20T10:09:39;49.83;;;23.25;;
44512;SDS011;30219;50.588;9.504;2022-11-20T10:12:31;46.72;;;23.10;;
44512;SDS011;30219;50.588;9.504;2022-11-20T10:15:22;44.67;;;21.02;;
44512;SDS011;30219;50.588;9.504;2022-11-20T10:20:48;42.35;;;20.58;;
44512;SDS011;30219;50.588;9.504;2022-11-20T10:31:42;42.35;;;22.50;;
44512;SDS011;30219;50.588;9.504;2022-11-20T10:37:01;47.88;;;24.00;;
44512;SDS011;30219;50.588;9.504;2022-11-20T10:39:45;46.75;;;21.60;;
44512;SDS011;30219;50.588;9.504;2022-11-20T10:42:31;40.42;;;20.10;;
44512;SDS011;30219;50.588;9.504;2022-11-20T10:47:54;41.35;;;20.67;;
44512;SDS011;30219;50.588;9.504;2022-11-20T10:50:32;41.80;;;21.10;;
44512;SDS011;30219;50.588;9.504;2022-11-20T10:55:46;40.63;;;19.23;;
44512;SDS011;30219;50.588;9.504;2022-11-20T11:01:15;32.92;;;17.83;;
44512;SDS011;30219;50.588;9.504;2022-11-20T11:03:42;36.00;;;18.30;;
44512;SDS011;30219;50.588;9.504;2022-11-20T11:08:59;41.65;;;18.75;;
44512;SDS011;30219;50.588;9.504;2022-11-20T11:11:30;37.58;;;18.58;;
44512;SDS011;30219;50.588;9.504;2022-11-20T11:14:08;34.38;;;18.50;;
44512;SDS011;30219;50.588;9.504;2022-11-20T11:16:33;30.80;;;16.15;;
44512;SDS011;30219;50.588;9.504;2022-11-20T11:19:03;25.77;;;13.50;;
44512;SDS011;30219;50.588;9.504;2022-11-20T11:21:36;28.90;;;15.18;;
44512;SDS011;30219;50.588;9.504;2022-11-20T11:24:14;39.47;;;16.70;;
44512;SDS011;30219;50.588;9.504;2022-11-20T11:27:00;31.63;;;15.65;;
44512;SDS011;30219;50.588;9.504;2022-11-20T11:29:32;27.67;;;14.57;;
44512;SDS011;30219;50.588;9.504;2022-11-20T11:32:08;27.98;;;14.45;;
44512;SDS011;30219;50.588;9.504;2022-11-20T11:34:38;21.33;;;10.82;;
44512;SDS011;30219;50.588;9.504;2022-11-20T11:37:03;22.65;;;12.35;;
44512;SDS011;30219;50.588;9.504;2022-11-20T11:39:35;28.08;;;14.73;;
44512;SDS011;30219;50.588;9.504;2022-11-20T11:42:01;27.52;;;14.93;;
44512;SDS011;30219;50.588;9.504;2022-11-20T11:44:30;18.65;;;10.70;;
44512;SDS011;30219;50.588;9.504;2022-11-20T11:47:26;16.73;;;9.57;;
44512;SDS011;30219;50.588;9.504;2022-11-20T11:52:45;17.60;;;9.48;;
44512;SDS011;30219;50.588;9.504;2022-11-20T11:55:26;19.52;;;10.27;;
44512;SDS011;30219;50.588;9.504;2022-11-20T11:58:15;17.77;;;9.27;;
44512;SDS011;30219;50.588;9.504;2022-11-20T12:00:58;15.18;;;7.85;;
44512;SDS011;30219;50.588;9.504;2022-11-20T12:04:00;23.13;;;11.48;;
44512;SDS011;30219;50.588;9.504;2022-11-20T12:06:28;19.25;;;11.18;;
44512;SDS011;30219;50.588;9.504;2022-11-20T12:09:01;20.48;;;10.05;;
44512;SDS011;30219;50.588;9.504;2022-11-20T12:16:26;16.77;;;7.73;;
44512;SDS011;30219;50.588;9.504;2022-11-20T12:18:52;16.83;;;9.07;;
44512;SDS011;30219;50.588;9.504;2022-11-20T12:21:32;17.17;;;8.95;;
44512;SDS011;30219;50.588;9.504;2022-11-20T12:24:34;16.42;;;9.45;;
44512;SDS011;30219;50.588;9.504;2022-11-20T12:27:28;21.48;;;9.93;;
44512;SDS011;30219;50.588;9.504;2022-11-20T12:30:12;17.77;;;9.75;;
44512;SDS011;30219;50.588;9.504;2022-11-20T12:44:30;15.88;;;7.82;;
44512;SDS011;30219;50.588;9.504;2022-11-20T12:59:25;12.57;;;7.00;;
44512;SDS011;30219;50.588;9.504;2022-11-20T13:07:57;12.45;;;7.07;;
44512;SDS011;30219;50.588;9.504;2022-11-20T13:10:31;12.55;;;7.35;;
44512;SDS011;30219;50.588;9.504;2022-11-20T13:13:03;12.40;;;7.28;;
44512;SDS011;30219;50.588;9.504;2022-11-20T13:16:06;14.13;;;7.88;;
44512;SDS011;30219;50.588;9.504;2022-11-20T13:18:38;14.52;;;8.10;;
44512;SDS011;30219;50.588;9.504;2022-11-20T13:21:13;12.80;;;7.32;;
44512;SDS011;30219;50.588;9.504;2022-11-20T13:24:05;12.43;;;6.05;;
44512;SDS011;30219;50.588;9.504;2022-11-20T13:26:48;15.18;;;7.68;;
44512;SDS011;30219;50.588;9.504;2022-11-20T13:29:29;13.48;;;7.50;;
44512;SDS011;30219;50.588;9.504;2022-11-20T13:32:05;14.43;;;7.70;;
44512;SDS011;30219;50.588;9.504;2022-11-20T13:34:54;13.63;;;7.93;;
44512;SDS011;30219;50.588;9.504;2022-11-20T13:37:34;13.65;;;7.47;;
44512;SDS011;30219;50.588;9.504;2022-11-20T13:42:43;9.47;;;5.47;;
44512;SDS011;30219;50.588;9.504;2022-11-20T13:45:28;110.22;;;49.33;;
44512;SDS011;30219;50.588;9.504;2022-11-20T13:47:55;50.20;;;27.42;;
44512;SDS011;30219;50.588;9.504;2022-11-20T13:50:29;19.23;;;11.88;;
44512;SDS011;30219;50.588;9.504;2022-11-20T13:56:08;11.77;;;6.65;;
44512;SDS011;30219;50.588;9.504;2022-11-20T13:58:52;16.00;;;7.85;;
44512;SDS011;30219;50.588;9.504;2022-11-20T14:01:28;14.02;;;8.05;;
44512;SDS011;30219;50.588;9.504;2022-11-20T14:03:59;11.30;;;6.60;;
44512;SDS011;30219;50.588;9.504;2022-11-20T14:06:35;12.30;;;7.17;;
44512;SDS011;30219;50.588;9.504;2022-11-20T14:09:12;13.75;;;7.85;;
44512;SDS011;30219;50.588;9.504;2022-11-20T14:11:49;13.02;;;7.22;;
44512;SDS011;30219;50.588;9.504;2022-11-20T14:14:16;13.60;;;7.38;;
44512;SDS011;30219;50.588;9.504;2022-11-20T14:16:44;12.52;;;7.00;;
44512;SDS011;30219;50.588;9.504;2022-11-20T14:21:45;16.10;;;8.20;;
44512;SDS011;30219;50.588;9.504;2022-11-20T14:24:12;13.55;;;7.55;;
44512;SDS011;30219;50.588;9.504;2022-11-20T14:26:44;12.52;;;6.78;;
44512;SDS011;30219;50.588;9.504;2022-11-20T14:29:56;13.88;;;7.13;;
44512;SDS011;30219;50.588;9.504;2022-11-20T14:32:00;13.18;;;7.25;;
44512;SDS011;30219;50.588;9.504;2022-11-20T14:34:28;12.73;;;7.68;;
44512;SDS011;30219;50.588;9.504;2022-11-20T14:36:57;15.07;;;7.70;;
44512;SDS011;30219;50.588;9.504;2022-11-20T14:39:32;16.15;;;7.75;;
44512;SDS011;30219;50.588;9.504;2022-11-20T14:42:14;12.88;;;7.63;;
44512;SDS011;30219;50.588;9.504;2022-11-20T14:44:48;13.52;;;7.90;;
44512;SDS011;30219;50.588;9.504;2022-11-20T14:47:17;15.68;;;7.78;;
44512;SDS011;30219;50.588;9.504;2022-11-20T14:49:45;12.80;;;7.30;;
44512;SDS011;30219;50.588;9.504;2022-11-20T14:54:45;15.52;;;8.52;;
44512;SDS011;30219;50.588;9.504;2022-11-20T14:57:20;18.42;;;9.27;;
44512;SDS011;30219;50.588;9.504;2022-11-20T15:00:19;16.23;;;9.23;;
44512;SDS011;30219;50.588;9.504;2022-11-20T15:02:47;17.63;;;8.38;;
44512;SDS011;30219;50.588;9.504;2022-11-20T15:05:15;16.40;;;8.77;;
44512;SDS011;30219;50.588;9.504;2022-11-20T15:07:45;18.27;;;9.73;;
44512;SDS011;30219;50.588;9.504;2022-11-20T15:10:19;16.23;;;7.90;;
44512;SDS011;30219;50.588;9.504;2022-11-20T15:12:58;20.10;;;8.55;;
44512;SDS011;30219;50.588;9.504;2022-11-20T15:15:50;19.23;;;9.30;;
44512;SDS011;30219;50.588;9.504;2022-11-20T15:18:16;33.88;;;13.90;;
44512;SDS011;30219;50.588;9.504;2022-11-20T15:20:53;32.53;;;15.10;;
44512;SDS011;30219;50.588;9.504;2022-11-20T15:23:21;25.85;;;13.13;;
44512;SDS011;30219;50.588;9.504;2022-11-20T15:25:47;26.13;;;14.18;;
44512;SDS011;30219;50.588;9.504;2022-11-20T15:28:16;23.38;;;12.27;;
44512;SDS011;30219;50.588;9.504;2022-11-20T15:30:42;24.55;;;12.82;;
44512;SDS011;30219;50.588;9.504;2022-11-20T15:33:08;24.05;;;11.68;;
44512;SDS011;30219;50.588;9.504;2022-11-20T15:35:34;25.77;;;13.07;;
44512;SDS011;30219;50.588;9.504;2022-11-20T15:38:00;24.73;;;12.45;;
44512;SDS011;30219;50.588;9.504;2022-11-20T15:40:25;28.00;;;14.73;;
44512;SDS011;30219;50.588;9.504;2022-11-20T15:42:51;26.40;;;13.38;;
44512;SDS011;30219;50.588;9.504;2022-11-20T15:45:29;46.53;;;21.60;;
44512;SDS011;30219;50.588;9.504;2022-11-20T15:48:11;39.92;;;18.73;;
44512;SDS011;30219;50.588;9.504;2022-11-20T15:50:50;37.83;;;17.75;;
44512;SDS011;30219;50.588;9.504;2022-11-20T15:53:21;32.92;;;15.63;;
44512;SDS011;30219;50.588;9.504;2022-11-20T15:55:47;25.65;;;12.93;;
44512;SDS011;30219;50.588;9.504;2022-11-20T15:58:12;32.55;;;14.70;;
44512;SDS011;30219;50.588;9.504;2022-11-20T16:00:38;28.75;;;14.80;;
44512;SDS011;30219;50.588;9.504;2022-11-20T16:03:04;32.13;;;14.43;;
44512;SDS011;30219;50.588;9.504;2022-11-20T16:05:29;27.92;;;13.98;;
44512;SDS011;30219;50.588;9.504;2022-11-20T16:07:55;26.80;;;12.80;;
44512;SDS011;30219;50.588;9.504;2022-11-20T16:10:21;24.98;;;12.32;;
44512;SDS011;30219;50.588;9.504;2022-11-20T16:12:48;28.30;;;13.30;;
44512;SDS011;30219;50.588;9.504;2022-11-20T16:15:32;28.75;;;14.38;;
44512;SDS011;30219;50.588;9.504;2022-11-20T16:18:11;29.00;;;14.68;;
44512;SDS011;30219;50.588;9.504;2022-11-20T16:20:38;30.77;;;15.05;;